createdAt,value
2022-07-27T00:02:03.589Z,1.57
2022-07-27T00:04:50.543Z,1.07
2022-07-27T00:07:38.708Z,1.40
2022-07-27T00:10:25.127Z,1.37
2022-07-27T00:13:11.932Z,1.53
2022-07-27T00:15:59.050Z,2.10
2022-07-27T00:18:45.523Z,1.40
2022-07-27T00:21:32.324Z,1.23
2022-07-27T00:24:20.488Z,1.50
2022-07-27T00:27:08.320Z,1.30
2022-07-27T00:29:58.873Z,1.17
2022-07-27T00:32:46.728Z,1.47
2022-07-27T00:35:33.431Z,1.17
2022-07-27T00:38:22.474Z,1.33
2022-07-27T00:41:11.340Z,1.03
2022-07-27T00:43:59.157Z,2.70
2022-07-27T00:46:45.632Z,1.67
2022-07-27T00:49:32.391Z,1.27
2022-07-27T00:52:19.642Z,1.20
2022-07-27T00:55:08.567Z,1.40
2022-07-27T00:57:59.548Z,1.30
2022-07-27T01:00:46.929Z,1.30
2022-07-27T01:03:33.445Z,1.47
2022-07-27T01:06:27.012Z,1.43
2022-07-27T01:09:31.512Z,1.27
2022-07-27T01:12:21.718Z,1.30
2022-07-27T01:15:10.897Z,1.53
2022-07-27T01:17:57.755Z,1.57
2022-07-27T01:20:44.613Z,1.10
2022-07-27T01:23:33.647Z,1.30
2022-07-27T01:26:20.005Z,1.37
2022-07-27T01:29:08.953Z,1.70
2022-07-27T01:31:57.649Z,1.70
2022-07-27T01:34:45.045Z,1.20
2022-07-27T01:37:33.905Z,1.40
2022-07-27T01:40:22.949Z,1.50
2022-07-27T01:43:10.057Z,1.30
2022-07-27T01:45:57.101Z,1.37
2022-07-27T01:48:43.828Z,1.17
2022-07-27T01:51:30.452Z,1.60
2022-07-27T01:54:17.256Z,1.30
2022-07-27T01:57:05.676Z,1.57
2022-07-27T01:59:53.888Z,1.70
2022-07-27T02:02:41.348Z,1.40
2022-07-27T02:05:28.413Z,1.80
2022-07-27T02:08:15.224Z,1.47
2022-07-27T02:11:19.828Z,1.50
2022-07-27T02:14:07.792Z,1.63
2022-07-27T02:16:54.672Z,1.30
2022-07-27T02:19:42.164Z,1.63
2022-07-27T02:22:29.332Z,1.60
2022-07-27T02:25:19.015Z,2.00
2022-07-27T02:28:06.171Z,1.50
2022-07-27T02:30:55.748Z,1.50
2022-07-27T02:33:42.548Z,1.50
2022-07-27T02:36:30.045Z,1.40
2022-07-27T02:39:16.910Z,1.70
2022-07-27T02:42:05.440Z,1.70
2022-07-27T02:44:52.885Z,1.30
2022-07-27T02:47:41.806Z,1.40
2022-07-27T02:50:29.924Z,1.60
2022-07-27T02:53:17.240Z,1.50
2022-07-27T02:56:04.180Z,1.53
2022-07-27T02:58:51.131Z,2.73
2022-07-27T03:01:39.613Z,1.50
2022-07-27T03:04:28.063Z,1.60
2022-07-27T03:07:14.947Z,1.60
2022-07-27T03:10:01.993Z,1.70
2022-07-27T03:12:48.505Z,1.40
2022-07-27T03:15:35.643Z,1.30
2022-07-27T03:18:22.058Z,1.47
2022-07-27T03:21:10.156Z,1.60
2022-07-27T03:23:57.895Z,1.60
2022-07-27T03:26:44.624Z,1.77
2022-07-27T03:29:31.503Z,1.90
2022-07-27T03:32:18.354Z,1.50
2022-07-27T03:35:05.518Z,1.53
2022-07-27T03:37:53.847Z,2.00
2022-07-27T03:40:41.711Z,1.40
2022-07-27T03:43:28.254Z,1.50
2022-07-27T03:46:15.073Z,1.93
2022-07-27T03:49:02.124Z,2.07
2022-07-27T03:52:01.312Z,2.20
2022-07-27T03:54:49.637Z,1.87
2022-07-27T03:57:36.113Z,1.53
2022-07-27T04:00:23.400Z,1.30
2022-07-27T04:03:09.945Z,1.80
2022-07-27T04:05:56.762Z,1.50
2022-07-27T04:08:43.442Z,1.70
2022-07-27T04:11:31.519Z,1.73
2022-07-27T04:14:18.382Z,1.40
2022-07-27T04:17:05.111Z,1.70
2022-07-27T04:19:51.880Z,1.93
2022-07-27T04:22:38.434Z,1.30
2022-07-27T04:25:25.213Z,1.40
2022-07-27T04:28:13.198Z,1.37
2022-07-27T04:31:00.153Z,1.17
2022-07-27T04:33:47.047Z,1.53
2022-07-27T04:36:33.635Z,1.10
2022-07-27T04:39:20.659Z,1.40
2022-07-27T04:42:07.771Z,1.23
2022-07-27T04:44:55.591Z,1.30
2022-07-27T04:47:42.360Z,1.40
2022-07-27T04:50:29.235Z,1.20
2022-07-27T04:53:18.094Z,1.57
2022-07-27T04:56:04.961Z,1.50
2022-07-27T04:58:52.857Z,1.30
2022-07-27T05:01:43.714Z,1.30
2022-07-27T05:04:32.580Z,1.10
2022-07-27T05:07:19.775Z,1.63
2022-07-27T05:10:08.494Z,1.30
2022-07-27T05:12:56.918Z,1.27
2022-07-27T05:15:54.117Z,1.20
2022-07-27T05:18:43.642Z,1.30
2022-07-27T05:21:30.331Z,1.20
2022-07-27T05:24:17.016Z,1.03
2022-07-27T05:27:06.391Z,1.23
2022-07-27T05:29:53.030Z,1.10
2022-07-27T05:32:43.946Z,1.07
2022-07-27T05:35:32.273Z,1.20
2022-07-27T05:38:18.993Z,1.20
2022-07-27T05:41:11.426Z,1.03
2022-07-27T05:43:57.819Z,1.00
2022-07-27T05:46:44.745Z,1.40
2022-07-27T05:49:32.147Z,1.20
2022-07-27T05:52:20.997Z,1.47
2022-07-27T05:55:08.596Z,1.20
2022-07-27T05:57:55.669Z,1.70
2022-07-27T06:00:43.869Z,1.17
2022-07-27T06:03:31.214Z,1.50
2022-07-27T06:06:44.394Z,1.10
2022-07-27T06:09:35.756Z,0.90
2022-07-27T06:12:23.055Z,1.23
2022-07-27T06:15:19.767Z,1.17
2022-07-27T06:18:09.133Z,1.27
2022-07-27T06:20:55.973Z,1.43
2022-07-27T06:23:42.912Z,1.00
2022-07-27T06:26:31.017Z,1.10
2022-07-27T06:29:17.647Z,1.00
2022-07-27T06:32:04.670Z,1.17
2022-07-27T06:34:51.861Z,1.57
2022-07-27T06:37:44.120Z,1.00
2022-07-27T06:40:32.301Z,1.10
2022-07-27T06:43:21.196Z,1.83
2022-07-27T06:46:12.615Z,0.97
2022-07-27T06:49:00.227Z,0.90
2022-07-27T06:51:46.903Z,0.90
2022-07-27T06:54:33.643Z,0.90
2022-07-27T06:57:20.408Z,1.30
2022-07-27T07:00:10.334Z,1.17
2022-07-27T07:02:59.291Z,0.70
2022-07-27T07:05:47.408Z,1.10
2022-07-27T07:08:34.233Z,1.10
2022-07-27T07:11:21.169Z,0.70
2022-07-27T07:14:07.747Z,0.90
2022-07-27T07:16:56.074Z,0.80
2022-07-27T07:19:42.484Z,0.90
2022-07-27T07:22:29.593Z,0.90
2022-07-27T07:25:16.236Z,0.73
2022-07-27T07:28:03.295Z,0.63
2022-07-27T07:30:50.025Z,0.80
2022-07-27T07:33:37.716Z,0.70
2022-07-27T07:36:24.641Z,1.00
2022-07-27T07:39:12.486Z,1.13
2022-07-27T07:41:59.449Z,0.73
2022-07-27T07:44:46.230Z,0.90
2022-07-27T07:47:32.905Z,1.00
2022-07-27T07:50:22.204Z,0.73
2022-07-27T07:53:09.086Z,1.10
2022-07-27T07:55:56.900Z,0.90
2022-07-27T07:58:43.355Z,1.67
2022-07-27T08:01:30.124Z,1.00
2022-07-27T08:04:16.741Z,0.97
2022-07-27T08:07:06.349Z,1.10
2022-07-27T08:09:52.721Z,0.80
2022-07-27T08:12:42.401Z,1.20
2022-07-27T08:15:35.880Z,1.30
2022-07-27T08:18:22.935Z,1.00
2022-07-27T08:21:09.568Z,0.90
2022-07-27T08:23:58.810Z,1.40
2022-07-27T08:26:49.598Z,1.03
2022-07-27T08:29:36.744Z,0.90
2022-07-27T08:32:25.155Z,1.00
2022-07-27T08:35:18.751Z,1.30
2022-07-27T08:38:09.464Z,0.90
2022-07-27T08:40:58.020Z,1.63
2022-07-27T08:43:45.119Z,0.67
2022-07-27T08:46:33.182Z,0.97
2022-07-27T08:49:20.373Z,0.70
2022-07-27T08:52:08.000Z,0.70
2022-07-27T08:54:54.510Z,0.70
2022-07-27T08:57:42.646Z,0.90
2022-07-27T09:00:30.010Z,1.00
2022-07-27T09:03:20.086Z,0.80
2022-07-27T09:06:07.601Z,0.93
2022-07-27T09:09:00.211Z,1.00
2022-07-27T09:12:04.965Z,0.80
2022-07-27T09:14:53.394Z,1.00
2022-07-27T09:17:48.598Z,0.90
2022-07-27T09:20:39.455Z,0.90
2022-07-27T09:23:28.332Z,0.80
2022-07-27T09:26:31.237Z,0.90
2022-07-27T09:29:19.670Z,0.80
2022-07-27T09:32:16.668Z,0.93
2022-07-27T09:35:17.026Z,1.03
2022-07-27T09:38:25.607Z,0.90
2022-07-27T09:41:14.407Z,0.90
2022-07-27T09:47:26.741Z,0.83
2022-07-27T09:50:20.548Z,1.10
2022-07-27T09:53:41.461Z,0.80
2022-07-27T09:56:30.338Z,1.43
2022-07-27T09:59:19.707Z,0.80
2022-07-27T10:02:06.738Z,1.20
2022-07-27T10:04:55.243Z,1.10
2022-07-27T10:07:41.973Z,0.70
2022-07-27T10:10:28.757Z,0.70
2022-07-27T10:13:15.505Z,1.10
2022-07-27T10:16:04.878Z,1.20
2022-07-27T10:18:59.900Z,0.90
2022-07-27T10:21:50.039Z,0.80
2022-07-27T10:24:37.306Z,1.07
2022-07-27T10:27:29.053Z,0.90
2022-07-27T10:30:27.643Z,0.90
2022-07-27T10:33:16.757Z,1.10
2022-07-27T10:36:04.907Z,1.10
2022-07-27T10:38:56.522Z,1.07
2022-07-27T10:41:44.054Z,0.90
2022-07-27T10:44:31.578Z,1.00
2022-07-27T10:47:31.017Z,1.23
2022-07-27T10:50:31.263Z,0.90
2022-07-27T10:53:18.697Z,1.20
2022-07-27T10:56:08.151Z,0.90
2022-07-27T10:58:54.973Z,1.90
2022-07-27T11:01:57.746Z,1.33
2022-07-27T11:04:46.079Z,1.20
2022-07-27T11:07:44.036Z,1.10
2022-07-27T11:10:44.768Z,0.90
2022-07-27T11:13:38.655Z,0.93
2022-07-27T11:16:27.903Z,0.90
2022-07-27T11:19:17.195Z,1.00
2022-07-27T11:22:04.810Z,0.80
2022-07-27T11:24:51.896Z,1.23
2022-07-27T11:27:47.560Z,1.00
2022-07-27T11:30:35.655Z,1.07
2022-07-27T11:33:23.035Z,1.07
2022-07-27T11:36:19.674Z,1.10
2022-07-27T11:39:14.559Z,1.00
2022-07-27T11:42:11.515Z,1.30
2022-07-27T11:44:58.548Z,1.10
2022-07-27T11:47:57.540Z,1.00
2022-07-27T11:50:58.440Z,0.87
2022-07-27T11:53:45.220Z,0.90
2022-07-27T11:56:34.098Z,1.00
2022-07-27T11:59:21.756Z,0.97
2022-07-27T12:02:10.076Z,1.00
2022-07-27T12:05:02.916Z,0.70
2022-07-27T12:07:52.779Z,0.93
2022-07-27T12:10:39.594Z,1.20
2022-07-27T12:13:33.533Z,0.90
2022-07-27T12:16:40.692Z,1.20
2022-07-27T12:19:28.935Z,1.50
2022-07-27T12:22:24.527Z,0.83
2022-07-27T12:25:25.448Z,0.97
2022-07-27T12:28:14.397Z,1.03
2022-07-27T12:31:01.366Z,0.87
2022-07-27T12:33:48.313Z,0.90
2022-07-27T12:36:35.094Z,0.80
2022-07-27T12:39:30.451Z,0.93
2022-07-27T12:42:17.094Z,1.20
2022-07-27T12:45:18.914Z,0.87
2022-07-27T12:48:09.893Z,0.90
2022-07-27T12:51:01.968Z,1.10
2022-07-27T12:53:48.555Z,0.80
2022-07-27T12:56:36.690Z,0.93
2022-07-27T12:59:23.845Z,0.97
2022-07-27T13:02:10.263Z,0.90
2022-07-27T13:04:57.080Z,1.13
2022-07-27T13:07:46.141Z,1.10
2022-07-27T13:10:33.375Z,1.20
2022-07-27T13:13:24.652Z,1.00
2022-07-27T13:16:11.756Z,0.90
2022-07-27T13:18:58.348Z,1.10
2022-07-27T13:21:45.087Z,0.90
2022-07-27T13:24:32.188Z,0.90
2022-07-27T13:27:18.537Z,0.80
2022-07-27T13:30:09.570Z,0.73
2022-07-27T13:32:56.974Z,1.00
2022-07-27T13:35:43.796Z,1.00
2022-07-27T13:38:33.596Z,1.10
2022-07-27T13:41:20.168Z,0.70
2022-07-27T13:44:08.652Z,1.00
2022-07-27T13:46:58.311Z,0.90
2022-07-27T13:49:45.528Z,1.10
2022-07-27T13:52:32.211Z,0.70
2022-07-27T13:55:20.703Z,0.77
2022-07-27T13:58:11.936Z,1.00
2022-07-27T14:01:02.776Z,0.70
2022-07-27T14:03:55.111Z,0.90
2022-07-27T14:06:42.152Z,0.80
2022-07-27T14:09:42.838Z,1.40
2022-07-27T14:12:29.420Z,1.10
2022-07-27T14:15:16.637Z,0.87
2022-07-27T14:18:03.267Z,0.70
2022-07-27T14:20:51.418Z,0.70
2022-07-27T14:23:38.481Z,0.80
2022-07-27T14:26:24.929Z,0.70
2022-07-27T14:29:11.625Z,0.70
2022-07-27T14:31:58.607Z,0.93
2022-07-27T14:34:45.152Z,0.90
2022-07-27T14:37:34.350Z,0.70
2022-07-27T14:40:21.428Z,0.87
2022-07-27T14:43:15.030Z,1.00
2022-07-27T14:46:03.049Z,0.70
2022-07-27T14:49:05.617Z,0.93
2022-07-27T14:51:52.924Z,0.90
2022-07-27T14:54:41.129Z,0.80
2022-07-27T14:57:29.785Z,0.90
2022-07-27T15:00:19.313Z,0.70
2022-07-27T15:03:07.325Z,0.93
2022-07-27T15:05:53.986Z,1.03
2022-07-27T15:08:40.713Z,0.90
2022-07-27T15:11:28.804Z,0.80
2022-07-27T15:14:18.588Z,1.13
2022-07-27T15:17:05.911Z,0.70
2022-07-27T15:19:54.189Z,0.80
2022-07-27T15:22:41.423Z,0.90
2022-07-27T15:25:28.287Z,0.80
2022-07-27T15:28:16.824Z,0.77
2022-07-27T15:31:03.499Z,0.90
2022-07-27T15:33:50.189Z,1.20
2022-07-27T15:36:43.703Z,0.90
2022-07-27T15:39:31.339Z,0.80
2022-07-27T15:42:18.193Z,0.97
2022-07-27T15:45:07.351Z,1.10
2022-07-27T15:47:53.827Z,0.87
2022-07-27T15:50:42.917Z,1.03
2022-07-27T15:53:30.084Z,0.70
2022-07-27T15:56:16.784Z,0.80
2022-07-27T15:59:03.277Z,0.83
2022-07-27T16:01:51.406Z,0.97
2022-07-27T16:04:40.094Z,0.83
2022-07-27T16:07:40.714Z,0.87
2022-07-27T16:10:30.682Z,0.80
2022-07-27T16:13:18.798Z,0.83
2022-07-27T16:16:26.124Z,0.70
2022-07-27T16:19:14.508Z,0.80
2022-07-27T16:22:03.821Z,0.70
2022-07-27T16:24:51.164Z,0.87
2022-07-27T16:27:40.689Z,0.87
2022-07-27T16:30:33.996Z,0.80
2022-07-27T16:33:24.767Z,0.93
2022-07-27T16:36:13.112Z,0.80
2022-07-27T16:38:59.988Z,0.80
2022-07-27T16:41:47.364Z,0.93
2022-07-27T16:44:35.574Z,0.80
2022-07-27T16:47:22.501Z,0.70
2022-07-27T16:50:09.802Z,0.80
2022-07-27T16:52:57.819Z,0.80
2022-07-27T16:55:47.202Z,0.90
2022-07-27T16:58:36.601Z,1.00
2022-07-27T17:01:26.155Z,0.90
2022-07-27T17:04:14.217Z,1.10
2022-07-27T17:07:00.583Z,0.97
2022-07-27T17:09:49.104Z,0.93
2022-07-27T17:12:38.844Z,0.83
2022-07-27T17:15:28.717Z,0.97
2022-07-27T17:18:16.219Z,1.03
2022-07-27T17:21:06.128Z,0.80
2022-07-27T17:23:59.063Z,1.00
2022-07-27T17:26:47.595Z,1.10
2022-07-27T17:29:34.462Z,1.07
2022-07-27T17:32:21.199Z,1.10
2022-07-27T17:35:08.724Z,1.20
2022-07-27T17:38:05.996Z,1.10
2022-07-27T17:40:53.177Z,1.30
2022-07-27T17:43:41.795Z,1.30
2022-07-27T17:46:28.786Z,1.00
2022-07-27T17:49:15.943Z,1.10
2022-07-27T17:52:03.315Z,1.57
2022-07-27T17:54:50.108Z,0.90
2022-07-27T17:57:36.872Z,1.20
2022-07-27T18:00:24.929Z,1.13
2022-07-27T18:03:13.069Z,1.30
2022-07-27T18:06:00.390Z,1.37
2022-07-27T18:08:46.866Z,1.40
2022-07-27T18:11:33.706Z,1.30
2022-07-27T18:14:21.654Z,1.30
2022-07-27T18:17:09.625Z,1.57
2022-07-27T18:19:56.369Z,1.50
2022-07-27T18:22:43.763Z,1.30
2022-07-27T18:25:30.722Z,1.30
2022-07-27T18:28:17.811Z,1.23
2022-07-27T18:31:05.252Z,1.37
2022-07-27T18:33:54.555Z,1.33
2022-07-27T18:36:42.584Z,1.40
2022-07-27T18:39:32.408Z,1.80
2022-07-27T18:42:20.537Z,1.10
2022-07-27T18:45:08.443Z,1.37
2022-07-27T18:47:55.403Z,1.40
2022-07-27T18:50:43.467Z,1.50
2022-07-27T18:53:30.294Z,1.40
2022-07-27T18:56:17.291Z,1.60
2022-07-27T18:59:04.114Z,1.40
2022-07-27T19:01:52.415Z,2.57
2022-07-27T19:04:41.716Z,1.40
2022-07-27T19:07:31.027Z,1.23
2022-07-27T19:10:20.921Z,1.50
2022-07-27T19:13:08.597Z,1.60
2022-07-27T19:15:55.027Z,1.90
2022-07-27T19:18:42.115Z,1.50
2022-07-27T19:21:28.606Z,1.30
2022-07-27T19:24:16.664Z,1.70
2022-07-27T19:27:03.590Z,1.60
2022-07-27T19:29:51.507Z,1.70
2022-07-27T19:32:38.161Z,2.83
2022-07-27T19:35:24.917Z,2.00
2022-07-27T19:38:13.222Z,1.60
2022-07-27T19:41:02.250Z,1.80
2022-07-27T19:43:49.003Z,1.87
2022-07-27T19:46:36.292Z,1.87
2022-07-27T19:49:24.235Z,1.90
2022-07-27T19:52:15.527Z,1.73
2022-07-27T19:55:02.015Z,1.90
2022-07-27T19:57:52.544Z,1.73
2022-07-27T20:00:39.673Z,1.60
2022-07-27T20:03:26.756Z,1.90
2022-07-27T20:06:14.815Z,2.10
2022-07-27T20:09:01.652Z,2.00
2022-07-27T20:11:49.785Z,1.93
2022-07-27T20:14:38.798Z,1.60
2022-07-27T20:17:25.565Z,1.90
2022-07-27T20:20:13.518Z,1.80
2022-07-27T20:23:00.431Z,1.77
2022-07-27T20:25:47.107Z,1.90
2022-07-27T20:28:33.787Z,1.70
2022-07-27T20:31:23.293Z,1.90
2022-07-27T20:34:12.436Z,1.50
2022-07-27T20:37:01.936Z,1.60
2022-07-27T20:39:49.511Z,1.67
2022-07-27T20:42:36.025Z,1.63
2022-07-27T20:45:26.914Z,1.93
2022-07-27T20:48:15.116Z,1.53
2022-07-27T20:51:01.885Z,1.60
2022-07-27T20:53:48.996Z,1.50
2022-07-27T20:56:36.053Z,1.60
2022-07-27T20:59:23.149Z,1.77
2022-07-27T21:02:10.083Z,1.90
2022-07-27T21:04:58.741Z,1.70
2022-07-27T21:07:46.592Z,1.67
2022-07-27T21:10:34.020Z,1.60
2022-07-27T21:13:20.453Z,1.80
2022-07-27T21:16:08.707Z,2.23
2022-07-27T21:18:57.165Z,1.70
2022-07-27T21:21:45.775Z,1.80
2022-07-27T21:24:32.264Z,1.37
2022-07-27T21:27:21.323Z,1.90
2022-07-27T21:30:08.929Z,1.63
2022-07-27T21:32:55.703Z,1.80
2022-07-27T21:35:42.663Z,1.87
2022-07-27T21:38:31.108Z,1.60
2022-07-27T21:41:17.907Z,2.13
2022-07-27T21:44:05.591Z,1.93
2022-07-27T21:46:52.964Z,1.77
2022-07-27T21:49:39.793Z,1.40
2022-07-27T21:52:26.898Z,1.50
2022-07-27T21:55:22.768Z,1.57
2022-07-27T21:58:12.272Z,1.40
2022-07-27T22:00:59.015Z,2.40
2022-07-27T22:03:46.107Z,1.50
2022-07-27T22:06:32.595Z,1.97
2022-07-27T22:09:20.213Z,1.70
2022-07-27T22:12:08.801Z,2.80
2022-07-27T22:14:55.511Z,2.60
2022-07-27T22:17:46.016Z,2.77
2022-07-27T22:20:37.094Z,2.53
2022-07-27T22:23:23.852Z,2.20
2022-07-27T22:26:10.824Z,2.33
2022-07-27T22:28:59.101Z,2.43
2022-07-27T22:31:45.848Z,2.23
2022-07-27T22:34:34.356Z,2.30
2022-07-27T22:37:21.673Z,2.00
2022-07-27T22:40:10.547Z,1.97
2022-07-27T22:42:57.484Z,2.10
2022-07-27T22:45:45.888Z,1.97
2022-07-27T22:48:32.781Z,1.93
2022-07-27T22:51:19.587Z,1.93
2022-07-27T22:54:06.389Z,2.07
2022-07-27T22:56:53.506Z,1.90
2022-07-27T22:59:40.250Z,1.40
2022-07-27T23:02:29.239Z,2.30
2022-07-27T23:05:16.334Z,2.33
2022-07-27T23:08:03.050Z,1.87
2022-07-27T23:10:49.808Z,1.90
2022-07-27T23:13:36.996Z,2.00
2022-07-27T23:16:23.959Z,2.07
2022-07-27T23:19:12.343Z,2.50
2022-07-27T23:22:01.504Z,1.93
2022-07-27T23:24:48.711Z,2.20
2022-07-27T23:27:35.861Z,2.20
2022-07-27T23:30:22.812Z,2.67
2022-07-27T23:33:09.546Z,2.27
2022-07-27T23:35:57.740Z,2.23
2022-07-27T23:38:44.415Z,2.87
2022-07-27T23:41:31.129Z,2.30
2022-07-27T23:44:17.841Z,2.07
2022-07-27T23:47:05.693Z,2.33
2022-07-27T23:49:52.227Z,2.37
2022-07-27T23:52:40.540Z,2.43
2022-07-27T23:55:27.407Z,1.93
2022-07-27T23:58:14.294Z,2.63
